<?xml version="1.0" encoding="UTF-8" standalone="no" ?>
<gpx xmlns="http://www.topografix.com/GPX/1/1" xmlns:xsi="http://www.w3.org/2001/XMLSchema-instance" xsi:schemaLocation="http://www.topografix.com/GPX/1/1 http://www.topografix.com/GPX/1/1/gpx.xsd" version="1.1" creator="VisuGPX - https://www.visugpx.com">
  <metadata>
    <name>RIANTEC</name>
    <desc><![CDATA[PARKING prés de l\'église: attention trés humide aprés temps pluvieux]]></desc>
  </metadata>
  <trk>
    <name><![CDATA[RIANTEC_1]]></name>
    <trkseg>
      <trkpt lat="47.71003" lon="-3.30936">
        <ele>116</ele>
        <time>2012-10-17T12:29:43</time>
      </trkpt>
      <trkpt lat="47.71001" lon="-3.30937">
        <ele>116</ele>
        <time>2012-10-17T12:30:12</time>
      </trkpt>
      <trkpt lat="47.70998" lon="-3.30943">
        <ele>115</ele>
        <time>2012-10-17T12:30:43</time>
      </trkpt>
      <trkpt lat="47.70994" lon="-3.30943">
        <ele>116</ele>
        <time>2012-10-17T12:31:13</time>
      </trkpt>
      <trkpt lat="47.70995" lon="-3.30946">
        <ele>116</ele>
        <time>2012-10-17T12:31:43</time>
      </trkpt>
      <trkpt lat="47.70995" lon="-3.30946">
        <ele>117</ele>
        <time>2012-10-17T12:32:13</time>
      </trkpt>
      <trkpt lat="47.70998" lon="-3.30947">
        <ele>117</ele>
        <time>2012-10-17T12:32:43</time>
      </trkpt>
      <trkpt lat="47.70997" lon="-3.30946">
        <ele>116</ele>
        <time>2012-10-17T12:33:13</time>
      </trkpt>
      <trkpt lat="47.70998" lon="-3.30943">
        <ele>117</ele>
        <time>2012-10-17T12:33:44</time>
      </trkpt>
      <trkpt lat="47.70996" lon="-3.30945">
        <ele>116</ele>
        <time>2012-10-17T12:34:14</time>
      </trkpt>
      <trkpt lat="47.70992" lon="-3.30954">
        <ele>116</ele>
        <time>2012-10-17T12:34:44</time>
      </trkpt>
      <trkpt lat="47.70963" lon="-3.3095">
        <ele>118</ele>
        <time>2012-10-17T12:35:14</time>
      </trkpt>
      <trkpt lat="47.70933" lon="-3.30929">
        <ele>118</ele>
        <time>2012-10-17T12:35:44</time>
      </trkpt>
      <trkpt lat="47.70902" lon="-3.30901">
        <ele>118</ele>
        <time>2012-10-17T12:36:15</time>
      </trkpt>
      <trkpt lat="47.70869" lon="-3.30897">
        <ele>116</ele>
        <time>2012-10-17T12:36:45</time>
      </trkpt>
      <trkpt lat="47.70847" lon="-3.30948">
        <ele>117</ele>
        <time>2012-10-17T12:37:15</time>
      </trkpt>
      <trkpt lat="47.70826" lon="-3.30997">
        <ele>118</ele>
        <time>2012-10-17T12:37:45</time>
      </trkpt>
      <trkpt lat="47.70805" lon="-3.31041">
        <ele>118</ele>
        <time>2012-10-17T12:38:15</time>
      </trkpt>
      <trkpt lat="47.70773" lon="-3.31071">
        <ele>117</ele>
        <time>2012-10-17T12:38:45</time>
      </trkpt>
      <trkpt lat="47.70734" lon="-3.31083">
        <ele>117</ele>
        <time>2012-10-17T12:39:16</time>
      </trkpt>
      <trkpt lat="47.70699" lon="-3.3108">
        <ele>119</ele>
        <time>2012-10-17T12:39:46</time>
      </trkpt>
      <trkpt lat="47.7066" lon="-3.31076">
        <ele>118</ele>
        <time>2012-10-17T12:40:16</time>
      </trkpt>
      <trkpt lat="47.70623" lon="-3.31064">
        <ele>119</ele>
        <time>2012-10-17T12:40:47</time>
      </trkpt>
      <trkpt lat="47.70595" lon="-3.31096">
        <ele>117</ele>
        <time>2012-10-17T12:41:17</time>
      </trkpt>
      <trkpt lat="47.70584" lon="-3.31147">
        <ele>118</ele>
        <time>2012-10-17T12:41:47</time>
      </trkpt>
      <trkpt lat="47.70574" lon="-3.31203">
        <ele>118</ele>
        <time>2012-10-17T12:42:17</time>
      </trkpt>
      <trkpt lat="47.70558" lon="-3.31254">
        <ele>116</ele>
        <time>2012-10-17T12:42:47</time>
      </trkpt>
      <trkpt lat="47.70523" lon="-3.31272">
        <ele>117</ele>
        <time>2012-10-17T12:43:18</time>
      </trkpt>
      <trkpt lat="47.70484" lon="-3.31269">
        <ele>116</ele>
        <time>2012-10-17T12:43:48</time>
      </trkpt>
      <trkpt lat="47.70444" lon="-3.31263">
        <ele>117</ele>
        <time>2012-10-17T12:44:18</time>
      </trkpt>
      <trkpt lat="47.70411" lon="-3.3126">
        <ele>117</ele>
        <time>2012-10-17T12:44:48</time>
      </trkpt>
      <trkpt lat="47.70378" lon="-3.31256">
        <ele>118</ele>
        <time>2012-10-17T12:45:18</time>
      </trkpt>
      <trkpt lat="47.7034" lon="-3.31255">
        <ele>117</ele>
        <time>2012-10-17T12:45:49</time>
      </trkpt>
      <trkpt lat="47.70302" lon="-3.31252">
        <ele>118</ele>
        <time>2012-10-17T12:46:19</time>
      </trkpt>
      <trkpt lat="47.70287" lon="-3.31273">
        <ele>117</ele>
        <time>2012-10-17T12:46:49</time>
      </trkpt>
      <trkpt lat="47.70277" lon="-3.31322">
        <ele>117</ele>
        <time>2012-10-17T12:47:19</time>
      </trkpt>
      <trkpt lat="47.70277" lon="-3.31371">
        <ele>118</ele>
        <time>2012-10-17T12:47:49</time>
      </trkpt>
      <trkpt lat="47.70271" lon="-3.31425">
        <ele>117</ele>
        <time>2012-10-17T12:48:20</time>
      </trkpt>
      <trkpt lat="47.70266" lon="-3.31477">
        <ele>118</ele>
        <time>2012-10-17T12:48:50</time>
      </trkpt>
      <trkpt lat="47.70264" lon="-3.31527">
        <ele>120</ele>
        <time>2012-10-17T12:49:20</time>
      </trkpt>
      <trkpt lat="47.70262" lon="-3.31531">
        <ele>119</ele>
        <time>2012-10-17T12:49:50</time>
      </trkpt>
      <trkpt lat="47.70262" lon="-3.31531">
        <ele>119</ele>
        <time>2012-10-17T12:50:20</time>
      </trkpt>
      <trkpt lat="47.70263" lon="-3.31533">
        <ele>118</ele>
        <time>2012-10-17T12:50:50</time>
      </trkpt>
      <trkpt lat="47.70259" lon="-3.31543">
        <ele>117</ele>
        <time>2012-10-17T12:51:20</time>
      </trkpt>
      <trkpt lat="47.70278" lon="-3.31584">
        <ele>115</ele>
        <time>2012-10-17T12:51:51</time>
      </trkpt>
      <trkpt lat="47.70304" lon="-3.31623">
        <ele>116</ele>
        <time>2012-10-17T12:52:21</time>
      </trkpt>
      <trkpt lat="47.7033" lon="-3.31655">
        <ele>116</ele>
        <time>2012-10-17T12:52:51</time>
      </trkpt>
      <trkpt lat="47.70359" lon="-3.31673">
        <ele>117</ele>
        <time>2012-10-17T12:53:21</time>
      </trkpt>
      <trkpt lat="47.7039" lon="-3.31693">
        <ele>117</ele>
        <time>2012-10-17T12:53:51</time>
      </trkpt>
      <trkpt lat="47.70419" lon="-3.31716">
        <ele>117</ele>
        <time>2012-10-17T12:54:22</time>
      </trkpt>
      <trkpt lat="47.70451" lon="-3.31735">
        <ele>117</ele>
        <time>2012-10-17T12:54:52</time>
      </trkpt>
      <trkpt lat="47.70483" lon="-3.31755">
        <ele>117</ele>
        <time>2012-10-17T12:55:22</time>
      </trkpt>
      <trkpt lat="47.70517" lon="-3.31767">
        <ele>118</ele>
        <time>2012-10-17T12:55:52</time>
      </trkpt>
      <trkpt lat="47.70545" lon="-3.31757">
        <ele>116</ele>
        <time>2012-10-17T12:56:22</time>
      </trkpt>
      <trkpt lat="47.70556" lon="-3.31711">
        <ele>117</ele>
        <time>2012-10-17T12:56:53</time>
      </trkpt>
      <trkpt lat="47.70565" lon="-3.31667">
        <ele>116</ele>
        <time>2012-10-17T12:57:23</time>
      </trkpt>
      <trkpt lat="47.70536" lon="-3.31659">
        <ele>116</ele>
        <time>2012-10-17T12:57:53</time>
      </trkpt>
      <trkpt lat="47.70526" lon="-3.31625">
        <ele>117</ele>
        <time>2012-10-17T12:58:23</time>
      </trkpt>
      <trkpt lat="47.70537" lon="-3.31579">
        <ele>116</ele>
        <time>2012-10-17T12:58:54</time>
      </trkpt>
      <trkpt lat="47.70543" lon="-3.3153">
        <ele>117</ele>
        <time>2012-10-17T12:59:24</time>
      </trkpt>
      <trkpt lat="47.70538" lon="-3.31485">
        <ele>117</ele>
        <time>2012-10-17T12:59:54</time>
      </trkpt>
      <trkpt lat="47.70541" lon="-3.31445">
        <ele>117</ele>
        <time>2012-10-17T13:00:24</time>
      </trkpt>
      <trkpt lat="47.70543" lon="-3.31398">
        <ele>116</ele>
        <time>2012-10-17T13:00:54</time>
      </trkpt>
      <trkpt lat="47.70543" lon="-3.31346">
        <ele>116</ele>
        <time>2012-10-17T13:01:25</time>
      </trkpt>
      <trkpt lat="47.70544" lon="-3.31294">
        <ele>116</ele>
        <time>2012-10-17T13:01:55</time>
      </trkpt>
      <trkpt lat="47.70547" lon="-3.31257">
        <ele>117</ele>
        <time>2012-10-17T13:02:25</time>
      </trkpt>
      <trkpt lat="47.70569" lon="-3.31219">
        <ele>118</ele>
        <time>2012-10-17T13:02:55</time>
      </trkpt>
      <trkpt lat="47.70578" lon="-3.31168">
        <ele>117</ele>
        <time>2012-10-17T13:03:25</time>
      </trkpt>
      <trkpt lat="47.70587" lon="-3.31116">
        <ele>118</ele>
        <time>2012-10-17T13:03:55</time>
      </trkpt>
      <trkpt lat="47.70601" lon="-3.3107">
        <ele>117</ele>
        <time>2012-10-17T13:04:26</time>
      </trkpt>
      <trkpt lat="47.70596" lon="-3.31032">
        <ele>117</ele>
        <time>2012-10-17T13:04:56</time>
      </trkpt>
      <trkpt lat="47.70563" lon="-3.31002">
        <ele>117</ele>
        <time>2012-10-17T13:05:26</time>
      </trkpt>
      <trkpt lat="47.70536" lon="-3.30972">
        <ele>116</ele>
        <time>2012-10-17T13:05:56</time>
      </trkpt>
      <trkpt lat="47.70535" lon="-3.3092">
        <ele>117</ele>
        <time>2012-10-17T13:06:26</time>
      </trkpt>
      <trkpt lat="47.70547" lon="-3.30872">
        <ele>118</ele>
        <time>2012-10-17T13:06:57</time>
      </trkpt>
      <trkpt lat="47.70561" lon="-3.30825">
        <ele>116</ele>
        <time>2012-10-17T13:07:27</time>
      </trkpt>
      <trkpt lat="47.70562" lon="-3.30805">
        <ele>117</ele>
        <time>2012-10-17T13:07:57</time>
      </trkpt>
      <trkpt lat="47.7053" lon="-3.30796">
        <ele>117</ele>
        <time>2012-10-17T13:08:27</time>
      </trkpt>
      <trkpt lat="47.705" lon="-3.30781">
        <ele>118</ele>
        <time>2012-10-17T13:08:58</time>
      </trkpt>
      <trkpt lat="47.70485" lon="-3.30732">
        <ele>118</ele>
        <time>2012-10-17T13:09:28</time>
      </trkpt>
      <trkpt lat="47.70473" lon="-3.30693">
        <ele>117</ele>
        <time>2012-10-17T13:09:58</time>
      </trkpt>
      <trkpt lat="47.70451" lon="-3.30666">
        <ele>117</ele>
        <time>2012-10-17T13:10:28</time>
      </trkpt>
      <trkpt lat="47.70419" lon="-3.30694">
        <ele>118</ele>
        <time>2012-10-17T13:10:58</time>
      </trkpt>
      <trkpt lat="47.70394" lon="-3.30723">
        <ele>118</ele>
        <time>2012-10-17T13:11:28</time>
      </trkpt>
      <trkpt lat="47.70387" lon="-3.30723">
        <ele>118</ele>
        <time>2012-10-17T13:11:59</time>
      </trkpt>
      <trkpt lat="47.70378" lon="-3.30711">
        <ele>119</ele>
        <time>2012-10-17T13:12:29</time>
      </trkpt>
      <trkpt lat="47.70364" lon="-3.30684">
        <ele>119</ele>
        <time>2012-10-17T13:12:59</time>
      </trkpt>
      <trkpt lat="47.70343" lon="-3.30648">
        <ele>118</ele>
        <time>2012-10-17T13:13:29</time>
      </trkpt>
      <trkpt lat="47.70325" lon="-3.306">
        <ele>119</ele>
        <time>2012-10-17T13:13:59</time>
      </trkpt>
      <trkpt lat="47.70303" lon="-3.30558">
        <ele>119</ele>
        <time>2012-10-17T13:14:30</time>
      </trkpt>
      <trkpt lat="47.70284" lon="-3.30517">
        <ele>118</ele>
        <time>2012-10-17T13:15:00</time>
      </trkpt>
      <trkpt lat="47.70269" lon="-3.30475">
        <ele>118</ele>
        <time>2012-10-17T13:15:30</time>
      </trkpt>
      <trkpt lat="47.70256" lon="-3.30424">
        <ele>119</ele>
        <time>2012-10-17T13:16:00</time>
      </trkpt>
      <trkpt lat="47.70254" lon="-3.30373">
        <ele>119</ele>
        <time>2012-10-17T13:16:30</time>
      </trkpt>
      <trkpt lat="47.70255" lon="-3.30329">
        <ele>118</ele>
        <time>2012-10-17T13:17:01</time>
      </trkpt>
      <trkpt lat="47.70256" lon="-3.30298">
        <ele>119</ele>
        <time>2012-10-17T13:17:31</time>
      </trkpt>
      <trkpt lat="47.70256" lon="-3.30254">
        <ele>121</ele>
        <time>2012-10-17T13:18:01</time>
      </trkpt>
      <trkpt lat="47.70238" lon="-3.30216">
        <ele>122</ele>
        <time>2012-10-17T13:18:31</time>
      </trkpt>
      <trkpt lat="47.70248" lon="-3.30168">
        <ele>120</ele>
        <time>2012-10-17T13:19:01</time>
      </trkpt>
      <trkpt lat="47.70266" lon="-3.30131">
        <ele>119</ele>
        <time>2012-10-17T13:19:32</time>
      </trkpt>
      <trkpt lat="47.70263" lon="-3.30078">
        <ele>120</ele>
        <time>2012-10-17T13:20:02</time>
      </trkpt>
      <trkpt lat="47.70257" lon="-3.30023">
        <ele>120</ele>
        <time>2012-10-17T13:20:32</time>
      </trkpt>
      <trkpt lat="47.70256" lon="-3.29973">
        <ele>119</ele>
        <time>2012-10-17T13:21:02</time>
      </trkpt>
      <trkpt lat="47.70253" lon="-3.29923">
        <ele>120</ele>
        <time>2012-10-17T13:21:32</time>
      </trkpt>
      <trkpt lat="47.70258" lon="-3.29894">
        <ele>118</ele>
        <time>2012-10-17T13:22:02</time>
      </trkpt>
      <trkpt lat="47.7027" lon="-3.29895">
        <ele>118</ele>
        <time>2012-10-17T13:22:33</time>
      </trkpt>
      <trkpt lat="47.70269" lon="-3.29875">
        <ele>120</ele>
        <time>2012-10-17T13:23:03</time>
      </trkpt>
      <trkpt lat="47.70274" lon="-3.2983">
        <ele>122</ele>
        <time>2012-10-17T13:23:33</time>
      </trkpt>
      <trkpt lat="47.70277" lon="-3.29782">
        <ele>121</ele>
        <time>2012-10-17T13:24:03</time>
      </trkpt>
      <trkpt lat="47.70283" lon="-3.29764">
        <ele>119</ele>
        <time>2012-10-17T13:24:33</time>
      </trkpt>
      <trkpt lat="47.70283" lon="-3.29753">
        <ele>119</ele>
        <time>2012-10-17T13:25:03</time>
      </trkpt>
      <trkpt lat="47.70292" lon="-3.29725">
        <ele>119</ele>
        <time>2012-10-17T13:25:34</time>
      </trkpt>
      <trkpt lat="47.70295" lon="-3.29719">
        <ele>120</ele>
        <time>2012-10-17T13:26:04</time>
      </trkpt>
      <trkpt lat="47.70298" lon="-3.2972">
        <ele>120</ele>
        <time>2012-10-17T13:26:34</time>
      </trkpt>
      <trkpt lat="47.70296" lon="-3.29716">
        <ele>120</ele>
        <time>2012-10-17T13:27:04</time>
      </trkpt>
      <trkpt lat="47.70298" lon="-3.29712">
        <ele>119</ele>
        <time>2012-10-17T13:27:34</time>
      </trkpt>
      <trkpt lat="47.703" lon="-3.29708">
        <ele>121</ele>
        <time>2012-10-17T13:28:04</time>
      </trkpt>
      <trkpt lat="47.70301" lon="-3.29703">
        <ele>121</ele>
        <time>2012-10-17T13:28:35</time>
      </trkpt>
      <trkpt lat="47.7033" lon="-3.29702">
        <ele>120</ele>
        <time>2012-10-17T13:29:05</time>
      </trkpt>
      <trkpt lat="47.70361" lon="-3.297">
        <ele>122</ele>
        <time>2012-10-17T13:29:35</time>
      </trkpt>
      <trkpt lat="47.70396" lon="-3.2969">
        <ele>123</ele>
        <time>2012-10-17T13:30:05</time>
      </trkpt>
      <trkpt lat="47.70403" lon="-3.29647">
        <ele>124</ele>
        <time>2012-10-17T13:30:35</time>
      </trkpt>
      <trkpt lat="47.70406" lon="-3.29598">
        <ele>125</ele>
        <time>2012-10-17T13:31:05</time>
      </trkpt>
      <trkpt lat="47.70413" lon="-3.29583">
        <ele>124</ele>
        <time>2012-10-17T13:31:36</time>
      </trkpt>
      <trkpt lat="47.70413" lon="-3.29583">
        <ele>125</ele>
        <time>2012-10-17T13:32:06</time>
      </trkpt>
      <trkpt lat="47.70416" lon="-3.29582">
        <ele>125</ele>
        <time>2012-10-17T13:32:36</time>
      </trkpt>
      <trkpt lat="47.70414" lon="-3.29585">
        <ele>124</ele>
        <time>2012-10-17T13:33:06</time>
      </trkpt>
      <trkpt lat="47.70436" lon="-3.29595">
        <ele>126</ele>
        <time>2012-10-17T13:33:37</time>
      </trkpt>
      <trkpt lat="47.70467" lon="-3.29602">
        <ele>126</ele>
        <time>2012-10-17T13:34:07</time>
      </trkpt>
      <trkpt lat="47.70499" lon="-3.29611">
        <ele>127</ele>
        <time>2012-10-17T13:34:37</time>
      </trkpt>
      <trkpt lat="47.70538" lon="-3.29617">
        <ele>127</ele>
        <time>2012-10-17T13:35:07</time>
      </trkpt>
      <trkpt lat="47.70574" lon="-3.29622">
        <ele>127</ele>
        <time>2012-10-17T13:35:37</time>
      </trkpt>
      <trkpt lat="47.70613" lon="-3.29624">
        <ele>127</ele>
        <time>2012-10-17T13:36:08</time>
      </trkpt>
      <trkpt lat="47.70641" lon="-3.29626">
        <ele>128</ele>
        <time>2012-10-17T13:36:38</time>
      </trkpt>
      <trkpt lat="47.70675" lon="-3.29628">
        <ele>127</ele>
        <time>2012-10-17T13:37:08</time>
      </trkpt>
      <trkpt lat="47.70712" lon="-3.29629">
        <ele>129</ele>
        <time>2012-10-17T13:37:38</time>
      </trkpt>
      <trkpt lat="47.70747" lon="-3.29625">
        <ele>129</ele>
        <time>2012-10-17T13:38:08</time>
      </trkpt>
      <trkpt lat="47.70781" lon="-3.29608">
        <ele>128</ele>
        <time>2012-10-17T13:38:39</time>
      </trkpt>
      <trkpt lat="47.70813" lon="-3.29591">
        <ele>129</ele>
        <time>2012-10-17T13:39:09</time>
      </trkpt>
      <trkpt lat="47.70844" lon="-3.29575">
        <ele>130</ele>
        <time>2012-10-17T13:39:39</time>
      </trkpt>
      <trkpt lat="47.70881" lon="-3.29558">
        <ele>129</ele>
        <time>2012-10-17T13:40:09</time>
      </trkpt>
      <trkpt lat="47.70914" lon="-3.29541">
        <ele>129</ele>
        <time>2012-10-17T13:40:39</time>
      </trkpt>
      <trkpt lat="47.70949" lon="-3.29525">
        <ele>128</ele>
        <time>2012-10-17T13:41:09</time>
      </trkpt>
      <trkpt lat="47.70983" lon="-3.29507">
        <ele>128</ele>
        <time>2012-10-17T13:41:40</time>
      </trkpt>
      <trkpt lat="47.71013" lon="-3.29492">
        <ele>127</ele>
        <time>2012-10-17T13:42:10</time>
      </trkpt>
      <trkpt lat="47.7103" lon="-3.29483">
        <ele>127</ele>
        <time>2012-10-17T13:42:40</time>
      </trkpt>
      <trkpt lat="47.71067" lon="-3.29484">
        <ele>128</ele>
        <time>2012-10-17T13:43:10</time>
      </trkpt>
      <trkpt lat="47.71105" lon="-3.29479">
        <ele>126</ele>
        <time>2012-10-17T13:43:40</time>
      </trkpt>
      <trkpt lat="47.71139" lon="-3.29458">
        <ele>127</ele>
        <time>2012-10-17T13:44:11</time>
      </trkpt>
      <trkpt lat="47.71169" lon="-3.29424">
        <ele>127</ele>
        <time>2012-10-17T13:44:41</time>
      </trkpt>
      <trkpt lat="47.71199" lon="-3.29399">
        <ele>129</ele>
        <time>2012-10-17T13:45:11</time>
      </trkpt>
      <trkpt lat="47.71236" lon="-3.29386">
        <ele>129</ele>
        <time>2012-10-17T13:45:41</time>
      </trkpt>
      <trkpt lat="47.71273" lon="-3.29366">
        <ele>129</ele>
        <time>2012-10-17T13:46:11</time>
      </trkpt>
      <trkpt lat="47.71301" lon="-3.29344">
        <ele>130</ele>
        <time>2012-10-17T13:46:41</time>
      </trkpt>
      <trkpt lat="47.71338" lon="-3.2931">
        <ele>131</ele>
        <time>2012-10-17T13:47:12</time>
      </trkpt>
      <trkpt lat="47.71368" lon="-3.29282">
        <ele>131</ele>
        <time>2012-10-17T13:47:42</time>
      </trkpt>
      <trkpt lat="47.71399" lon="-3.29251">
        <ele>132</ele>
        <time>2012-10-17T13:48:12</time>
      </trkpt>
      <trkpt lat="47.71428" lon="-3.29223">
        <ele>134</ele>
        <time>2012-10-17T13:48:42</time>
      </trkpt>
      <trkpt lat="47.71457" lon="-3.29197">
        <ele>136</ele>
        <time>2012-10-17T13:49:12</time>
      </trkpt>
      <trkpt lat="47.71488" lon="-3.29167">
        <ele>136</ele>
        <time>2012-10-17T13:49:43</time>
      </trkpt>
      <trkpt lat="47.71516" lon="-3.2914">
        <ele>140</ele>
        <time>2012-10-17T13:50:13</time>
      </trkpt>
      <trkpt lat="47.71545" lon="-3.29116">
        <ele>141</ele>
        <time>2012-10-17T13:50:43</time>
      </trkpt>
      <trkpt lat="47.71572" lon="-3.29088">
        <ele>142</ele>
        <time>2012-10-17T13:51:13</time>
      </trkpt>
      <trkpt lat="47.71576" lon="-3.29037">
        <ele>143</ele>
        <time>2012-10-17T13:51:43</time>
      </trkpt>
      <trkpt lat="47.71585" lon="-3.28988">
        <ele>144</ele>
        <time>2012-10-17T13:52:13</time>
      </trkpt>
      <trkpt lat="47.71577" lon="-3.2894">
        <ele>145</ele>
        <time>2012-10-17T13:52:44</time>
      </trkpt>
      <trkpt lat="47.71564" lon="-3.28894">
        <ele>146</ele>
        <time>2012-10-17T13:53:14</time>
      </trkpt>
      <trkpt lat="47.71562" lon="-3.28846">
        <ele>146</ele>
        <time>2012-10-17T13:53:44</time>
      </trkpt>
      <trkpt lat="47.71564" lon="-3.288">
        <ele>147</ele>
        <time>2012-10-17T13:54:14</time>
      </trkpt>
      <trkpt lat="47.71559" lon="-3.28753">
        <ele>147</ele>
        <time>2012-10-17T13:54:44</time>
      </trkpt>
      <trkpt lat="47.71541" lon="-3.28716">
        <ele>147</ele>
        <time>2012-10-17T13:55:15</time>
      </trkpt>
      <trkpt lat="47.71519" lon="-3.28696">
        <ele>147</ele>
        <time>2012-10-17T13:55:45</time>
      </trkpt>
      <trkpt lat="47.71511" lon="-3.28683">
        <ele>147</ele>
        <time>2012-10-17T13:56:15</time>
      </trkpt>
      <trkpt lat="47.71512" lon="-3.28688">
        <ele>147</ele>
        <time>2012-10-17T13:56:45</time>
      </trkpt>
      <trkpt lat="47.71509" lon="-3.28686">
        <ele>148</ele>
        <time>2012-10-17T13:57:15</time>
      </trkpt>
      <trkpt lat="47.71493" lon="-3.28689">
        <ele>143</ele>
        <time>2012-10-17T13:57:45</time>
      </trkpt>
      <trkpt lat="47.7149" lon="-3.28692">
        <ele>146</ele>
        <time>2012-10-17T13:58:16</time>
      </trkpt>
      <trkpt lat="47.71487" lon="-3.28687">
        <ele>146</ele>
        <time>2012-10-17T13:58:46</time>
      </trkpt>
      <trkpt lat="47.71497" lon="-3.28687">
        <ele>145</ele>
        <time>2012-10-17T13:59:16</time>
      </trkpt>
      <trkpt lat="47.71501" lon="-3.28695">
        <ele>146</ele>
        <time>2012-10-17T13:59:46</time>
      </trkpt>
      <trkpt lat="47.71505" lon="-3.28691">
        <ele>146</ele>
        <time>2012-10-17T14:00:16</time>
      </trkpt>
      <trkpt lat="47.715" lon="-3.28692">
        <ele>147</ele>
        <time>2012-10-17T14:00:47</time>
      </trkpt>
      <trkpt lat="47.715" lon="-3.2869">
        <ele>146</ele>
        <time>2012-10-17T14:01:17</time>
      </trkpt>
      <trkpt lat="47.71503" lon="-3.28689">
        <ele>146</ele>
        <time>2012-10-17T14:01:47</time>
      </trkpt>
      <trkpt lat="47.71505" lon="-3.28668">
        <ele>146</ele>
        <time>2012-10-17T14:02:17</time>
      </trkpt>
      <trkpt lat="47.71517" lon="-3.28637">
        <ele>146</ele>
        <time>2012-10-17T14:02:47</time>
      </trkpt>
      <trkpt lat="47.71536" lon="-3.28615">
        <ele>146</ele>
        <time>2012-10-17T14:03:17</time>
      </trkpt>
      <trkpt lat="47.71539" lon="-3.28565">
        <ele>145</ele>
        <time>2012-10-17T14:03:48</time>
      </trkpt>
      <trkpt lat="47.71553" lon="-3.28525">
        <ele>147</ele>
        <time>2012-10-17T14:04:18</time>
      </trkpt>
      <trkpt lat="47.71566" lon="-3.28483">
        <ele>146</ele>
        <time>2012-10-17T14:04:48</time>
      </trkpt>
      <trkpt lat="47.7159" lon="-3.2845">
        <ele>146</ele>
        <time>2012-10-17T14:05:18</time>
      </trkpt>
      <trkpt lat="47.71615" lon="-3.28419">
        <ele>147</ele>
        <time>2012-10-17T14:05:48</time>
      </trkpt>
      <trkpt lat="47.71648" lon="-3.28379">
        <ele>146</ele>
        <time>2012-10-17T14:06:19</time>
      </trkpt>
      <trkpt lat="47.71678" lon="-3.28346">
        <ele>147</ele>
        <time>2012-10-17T14:06:49</time>
      </trkpt>
      <trkpt lat="47.71706" lon="-3.28331">
        <ele>148</ele>
        <time>2012-10-17T14:07:19</time>
      </trkpt>
      <trkpt lat="47.71735" lon="-3.28329">
        <ele>147</ele>
        <time>2012-10-17T14:07:49</time>
      </trkpt>
      <trkpt lat="47.71771" lon="-3.2833">
        <ele>146</ele>
        <time>2012-10-17T14:08:19</time>
      </trkpt>
      <trkpt lat="47.71804" lon="-3.28328">
        <ele>145</ele>
        <time>2012-10-17T14:08:49</time>
      </trkpt>
      <trkpt lat="47.7185" lon="-3.28334">
        <ele>143</ele>
        <time>2012-10-17T14:09:20</time>
      </trkpt>
      <trkpt lat="47.71899" lon="-3.2833">
        <ele>143</ele>
        <time>2012-10-17T14:09:50</time>
      </trkpt>
      <trkpt lat="47.7194" lon="-3.28317">
        <ele>140</ele>
        <time>2012-10-17T14:10:20</time>
      </trkpt>
      <trkpt lat="47.71977" lon="-3.28317">
        <ele>139</ele>
        <time>2012-10-17T14:10:50</time>
      </trkpt>
      <trkpt lat="47.72007" lon="-3.2832">
        <ele>137</ele>
        <time>2012-10-17T14:11:20</time>
      </trkpt>
      <trkpt lat="47.72041" lon="-3.28315">
        <ele>136</ele>
        <time>2012-10-17T14:11:50</time>
      </trkpt>
      <trkpt lat="47.72078" lon="-3.28303">
        <ele>137</ele>
        <time>2012-10-17T14:12:21</time>
      </trkpt>
      <trkpt lat="47.72114" lon="-3.28286">
        <ele>136</ele>
        <time>2012-10-17T14:12:51</time>
      </trkpt>
      <trkpt lat="47.7215" lon="-3.28261">
        <ele>136</ele>
        <time>2012-10-17T14:13:21</time>
      </trkpt>
      <trkpt lat="47.72189" lon="-3.28257">
        <ele>137</ele>
        <time>2012-10-17T14:13:51</time>
      </trkpt>
      <trkpt lat="47.72224" lon="-3.28268">
        <ele>138</ele>
        <time>2012-10-17T14:14:21</time>
      </trkpt>
      <trkpt lat="47.72246" lon="-3.28308">
        <ele>138</ele>
        <time>2012-10-17T14:14:51</time>
      </trkpt>
      <trkpt lat="47.72266" lon="-3.28352">
        <ele>138</ele>
        <time>2012-10-17T14:15:22</time>
      </trkpt>
      <trkpt lat="47.7229" lon="-3.28392">
        <ele>139</ele>
        <time>2012-10-17T14:15:52</time>
      </trkpt>
      <trkpt lat="47.72316" lon="-3.28417">
        <ele>140</ele>
        <time>2012-10-17T14:16:22</time>
      </trkpt>
      <trkpt lat="47.72351" lon="-3.2843">
        <ele>139</ele>
        <time>2012-10-17T14:16:52</time>
      </trkpt>
      <trkpt lat="47.72387" lon="-3.28436">
        <ele>138</ele>
        <time>2012-10-17T14:17:22</time>
      </trkpt>
      <trkpt lat="47.72408" lon="-3.28459">
        <ele>135</ele>
        <time>2012-10-17T14:17:53</time>
      </trkpt>
      <trkpt lat="47.72407" lon="-3.28496">
        <ele>133</ele>
        <time>2012-10-17T14:18:23</time>
      </trkpt>
      <trkpt lat="47.72396" lon="-3.28541">
        <ele>131</ele>
        <time>2012-10-17T14:18:53</time>
      </trkpt>
      <trkpt lat="47.72379" lon="-3.28587">
        <ele>131</ele>
        <time>2012-10-17T14:19:23</time>
      </trkpt>
      <trkpt lat="47.72359" lon="-3.28626">
        <ele>133</ele>
        <time>2012-10-17T14:19:53</time>
      </trkpt>
      <trkpt lat="47.72334" lon="-3.28667">
        <ele>133</ele>
        <time>2012-10-17T14:20:24</time>
      </trkpt>
      <trkpt lat="47.7231" lon="-3.28707">
        <ele>133</ele>
        <time>2012-10-17T14:20:54</time>
      </trkpt>
      <trkpt lat="47.72279" lon="-3.28755">
        <ele>132</ele>
        <time>2012-10-17T14:21:24</time>
      </trkpt>
      <trkpt lat="47.72262" lon="-3.28796">
        <ele>131</ele>
        <time>2012-10-17T14:21:54</time>
      </trkpt>
      <trkpt lat="47.72244" lon="-3.28827">
        <ele>130</ele>
        <time>2012-10-17T14:22:24</time>
      </trkpt>
      <trkpt lat="47.72211" lon="-3.28836">
        <ele>132</ele>
        <time>2012-10-17T14:22:54</time>
      </trkpt>
      <trkpt lat="47.72187" lon="-3.2884">
        <ele>134</ele>
        <time>2012-10-17T14:23:25</time>
      </trkpt>
      <trkpt lat="47.72156" lon="-3.28853">
        <ele>134</ele>
        <time>2012-10-17T14:23:55</time>
      </trkpt>
      <trkpt lat="47.72126" lon="-3.28851">
        <ele>135</ele>
        <time>2012-10-17T14:24:25</time>
      </trkpt>
      <trkpt lat="47.7211" lon="-3.28854">
        <ele>135</ele>
        <time>2012-10-17T14:24:55</time>
      </trkpt>
      <trkpt lat="47.72107" lon="-3.28856">
        <ele>137</ele>
        <time>2012-10-17T14:25:25</time>
      </trkpt>
      <trkpt lat="47.72094" lon="-3.28864">
        <ele>136</ele>
        <time>2012-10-17T14:25:55</time>
      </trkpt>
      <trkpt lat="47.72073" lon="-3.2888">
        <ele>136</ele>
        <time>2012-10-17T14:26:26</time>
      </trkpt>
      <trkpt lat="47.72059" lon="-3.28932">
        <ele>136</ele>
        <time>2012-10-17T14:26:56</time>
      </trkpt>
      <trkpt lat="47.72048" lon="-3.28967">
        <ele>137</ele>
        <time>2012-10-17T14:27:26</time>
      </trkpt>
      <trkpt lat="47.72045" lon="-3.28977">
        <ele>138</ele>
        <time>2012-10-17T14:27:56</time>
      </trkpt>
      <trkpt lat="47.72029" lon="-3.28989">
        <ele>138</ele>
        <time>2012-10-17T14:28:26</time>
      </trkpt>
      <trkpt lat="47.72009" lon="-3.29001">
        <ele>140</ele>
        <time>2012-10-17T14:28:56</time>
      </trkpt>
      <trkpt lat="47.71985" lon="-3.29022">
        <ele>141</ele>
        <time>2012-10-17T14:29:27</time>
      </trkpt>
      <trkpt lat="47.71961" lon="-3.29036">
        <ele>145</ele>
        <time>2012-10-17T14:29:57</time>
      </trkpt>
      <trkpt lat="47.7193" lon="-3.29046">
        <ele>147</ele>
        <time>2012-10-17T14:30:27</time>
      </trkpt>
      <trkpt lat="47.71904" lon="-3.29069">
        <ele>147</ele>
        <time>2012-10-17T14:30:57</time>
      </trkpt>
      <trkpt lat="47.71872" lon="-3.29086">
        <ele>146</ele>
        <time>2012-10-17T14:31:27</time>
      </trkpt>
      <trkpt lat="47.71836" lon="-3.29096">
        <ele>146</ele>
        <time>2012-10-17T14:31:58</time>
      </trkpt>
      <trkpt lat="47.71822" lon="-3.291">
        <ele>146</ele>
        <time>2012-10-17T14:32:28</time>
      </trkpt>
      <trkpt lat="47.71817" lon="-3.29094">
        <ele>147</ele>
        <time>2012-10-17T14:32:58</time>
      </trkpt>
      <trkpt lat="47.71795" lon="-3.29089">
        <ele>147</ele>
        <time>2012-10-17T14:33:28</time>
      </trkpt>
      <trkpt lat="47.71762" lon="-3.291">
        <ele>145</ele>
        <time>2012-10-17T14:33:58</time>
      </trkpt>
      <trkpt lat="47.71721" lon="-3.29094">
        <ele>145</ele>
        <time>2012-10-17T14:34:29</time>
      </trkpt>
      <trkpt lat="47.71682" lon="-3.2909">
        <ele>145</ele>
        <time>2012-10-17T14:34:59</time>
      </trkpt>
      <trkpt lat="47.7164" lon="-3.29087">
        <ele>143</ele>
        <time>2012-10-17T14:35:29</time>
      </trkpt>
      <trkpt lat="47.71599" lon="-3.29091">
        <ele>142</ele>
        <time>2012-10-17T14:35:59</time>
      </trkpt>
      <trkpt lat="47.71561" lon="-3.291">
        <ele>143</ele>
        <time>2012-10-17T14:36:29</time>
      </trkpt>
      <trkpt lat="47.71526" lon="-3.29121">
        <ele>142</ele>
        <time>2012-10-17T14:37:00</time>
      </trkpt>
      <trkpt lat="47.71496" lon="-3.29154">
        <ele>139</ele>
        <time>2012-10-17T14:37:30</time>
      </trkpt>
      <trkpt lat="47.71463" lon="-3.29186">
        <ele>137</ele>
        <time>2012-10-17T14:38:00</time>
      </trkpt>
      <trkpt lat="47.7143" lon="-3.29219">
        <ele>136</ele>
        <time>2012-10-17T14:38:30</time>
      </trkpt>
      <trkpt lat="47.71397" lon="-3.29249">
        <ele>133</ele>
        <time>2012-10-17T14:39:00</time>
      </trkpt>
      <trkpt lat="47.71365" lon="-3.29278">
        <ele>132</ele>
        <time>2012-10-17T14:39:30</time>
      </trkpt>
      <trkpt lat="47.71333" lon="-3.29307">
        <ele>131</ele>
        <time>2012-10-17T14:40:01</time>
      </trkpt>
      <trkpt lat="47.71304" lon="-3.29336">
        <ele>130</ele>
        <time>2012-10-17T14:40:31</time>
      </trkpt>
      <trkpt lat="47.71269" lon="-3.29363">
        <ele>131</ele>
        <time>2012-10-17T14:41:01</time>
      </trkpt>
      <trkpt lat="47.71231" lon="-3.29383">
        <ele>130</ele>
        <time>2012-10-17T14:41:31</time>
      </trkpt>
      <trkpt lat="47.71195" lon="-3.29398">
        <ele>129</ele>
        <time>2012-10-17T14:42:01</time>
      </trkpt>
      <trkpt lat="47.71183" lon="-3.29406">
        <ele>129</ele>
        <time>2012-10-17T14:42:32</time>
      </trkpt>
      <trkpt lat="47.71153" lon="-3.2944">
        <ele>128</ele>
        <time>2012-10-17T14:43:02</time>
      </trkpt>
      <trkpt lat="47.71115" lon="-3.29472">
        <ele>129</ele>
        <time>2012-10-17T14:43:32</time>
      </trkpt>
      <trkpt lat="47.71075" lon="-3.29484">
        <ele>129</ele>
        <time>2012-10-17T14:44:02</time>
      </trkpt>
      <trkpt lat="47.71034" lon="-3.29488">
        <ele>129</ele>
        <time>2012-10-17T14:44:32</time>
      </trkpt>
      <trkpt lat="47.71038" lon="-3.29537">
        <ele>129</ele>
        <time>2012-10-17T14:45:03</time>
      </trkpt>
      <trkpt lat="47.71052" lon="-3.29595">
        <ele>128</ele>
        <time>2012-10-17T14:45:33</time>
      </trkpt>
      <trkpt lat="47.71066" lon="-3.29649">
        <ele>129</ele>
        <time>2012-10-17T14:46:03</time>
      </trkpt>
      <trkpt lat="47.71078" lon="-3.297">
        <ele>127</ele>
        <time>2012-10-17T14:46:33</time>
      </trkpt>
      <trkpt lat="47.71088" lon="-3.2975">
        <ele>126</ele>
        <time>2012-10-17T14:47:03</time>
      </trkpt>
      <trkpt lat="47.71088" lon="-3.29796">
        <ele>126</ele>
        <time>2012-10-17T14:47:34</time>
      </trkpt>
      <trkpt lat="47.71072" lon="-3.29846">
        <ele>125</ele>
        <time>2012-10-17T14:48:04</time>
      </trkpt>
      <trkpt lat="47.71056" lon="-3.29891">
        <ele>124</ele>
        <time>2012-10-17T14:48:34</time>
      </trkpt>
      <trkpt lat="47.71041" lon="-3.29942">
        <ele>125</ele>
        <time>2012-10-17T14:49:04</time>
      </trkpt>
      <trkpt lat="47.7103" lon="-3.29998">
        <ele>125</ele>
        <time>2012-10-17T14:49:34</time>
      </trkpt>
      <trkpt lat="47.71023" lon="-3.30054">
        <ele>125</ele>
        <time>2012-10-17T14:50:05</time>
      </trkpt>
      <trkpt lat="47.71022" lon="-3.30112">
        <ele>125</ele>
        <time>2012-10-17T14:50:35</time>
      </trkpt>
      <trkpt lat="47.71027" lon="-3.30158">
        <ele>125</ele>
        <time>2012-10-17T14:51:05</time>
      </trkpt>
      <trkpt lat="47.71017" lon="-3.30209">
        <ele>125</ele>
        <time>2012-10-17T14:51:35</time>
      </trkpt>
      <trkpt lat="47.71011" lon="-3.3026">
        <ele>125</ele>
        <time>2012-10-17T14:52:05</time>
      </trkpt>
      <trkpt lat="47.7104" lon="-3.30281">
        <ele>126</ele>
        <time>2012-10-17T14:52:36</time>
      </trkpt>
      <trkpt lat="47.71072" lon="-3.30289">
        <ele>126</ele>
        <time>2012-10-17T14:53:06</time>
      </trkpt>
      <trkpt lat="47.71096" lon="-3.30311">
        <ele>125</ele>
        <time>2012-10-17T14:53:36</time>
      </trkpt>
      <trkpt lat="47.71095" lon="-3.30364">
        <ele>127</ele>
        <time>2012-10-17T14:54:06</time>
      </trkpt>
      <trkpt lat="47.71091" lon="-3.30421">
        <ele>125</ele>
        <time>2012-10-17T14:54:37</time>
      </trkpt>
      <trkpt lat="47.71091" lon="-3.3048">
        <ele>126</ele>
        <time>2012-10-17T14:55:07</time>
      </trkpt>
      <trkpt lat="47.71089" lon="-3.30535">
        <ele>126</ele>
        <time>2012-10-17T14:55:37</time>
      </trkpt>
      <trkpt lat="47.71077" lon="-3.30591">
        <ele>127</ele>
        <time>2012-10-17T14:56:07</time>
      </trkpt>
      <trkpt lat="47.71067" lon="-3.30649">
        <ele>127</ele>
        <time>2012-10-17T14:56:38</time>
      </trkpt>
      <trkpt lat="47.71054" lon="-3.30705">
        <ele>126</ele>
        <time>2012-10-17T14:57:08</time>
      </trkpt>
      <trkpt lat="47.71041" lon="-3.30761">
        <ele>126</ele>
        <time>2012-10-17T14:57:38</time>
      </trkpt>
      <trkpt lat="47.71028" lon="-3.30816">
        <ele>128</ele>
        <time>2012-10-17T14:58:08</time>
      </trkpt>
      <trkpt lat="47.71018" lon="-3.30868">
        <ele>129</ele>
        <time>2012-10-17T14:58:38</time>
      </trkpt>
      <trkpt lat="47.71004" lon="-3.30916">
        <ele>127</ele>
        <time>2012-10-17T14:59:09</time>
      </trkpt>
      <trkpt lat="47.71" lon="-3.30926">
        <ele>126</ele>
        <time>2012-10-17T14:59:19</time>
      </trkpt>
    </trkseg>
  </trk>
</gpx>